sensor_id;sensor_type;location;lat;lon;timestamp;P1;durP1;ratioP1;P2;durP2;ratioP2
15938;SDS011;8068;51.322;9.450;2023-05-15T00:01:07;6.67;;;5.57;;
15938;SDS011;8068;51.322;9.450;2023-05-15T00:03:33;5.43;;;4.90;;
15938;SDS011;8068;51.322;9.450;2023-05-15T00:05:59;5.63;;;5.30;;
15938;SDS011;8068;51.322;9.450;2023-05-15T00:08:25;6.70;;;6.03;;
15938;SDS011;8068;51.322;9.450;2023-05-15T00:10:51;9.60;;;6.37;;
15938;SDS011;8068;51.322;9.450;2023-05-15T00:13:27;5.93;;;5.53;;
15938;SDS011;8068;51.322;9.450;2023-05-15T00:15:53;5.40;;;4.90;;
15938;SDS011;8068;51.322;9.450;2023-05-15T00:18:19;5.77;;;5.47;;
15938;SDS011;8068;51.322;9.450;2023-05-15T00:20:46;6.80;;;5.77;;
15938;SDS011;8068;51.322;9.450;2023-05-15T00:23:12;5.47;;;5.17;;
15938;SDS011;8068;51.322;9.450;2023-05-15T00:25:38;4.90;;;4.60;;
15938;SDS011;8068;51.322;9.450;2023-05-15T00:28:04;6.77;;;6.07;;
15938;SDS011;8068;51.322;9.450;2023-05-15T00:30:30;7.33;;;5.20;;
15938;SDS011;8068;51.322;9.450;2023-05-15T00:32:56;5.80;;;5.13;;
15938;SDS011;8068;51.322;9.450;2023-05-15T00:35:22;4.73;;;4.43;;
15938;SDS011;8068;51.322;9.450;2023-05-15T00:37:49;4.73;;;4.53;;
15938;SDS011;8068;51.322;9.450;2023-05-15T00:40:19;4.90;;;4.40;;
15938;SDS011;8068;51.322;9.450;2023-05-15T00:42:47;6.90;;;4.70;;
15938;SDS011;8068;51.322;9.450;2023-05-15T00:45:13;7.33;;;5.43;;
15938;SDS011;8068;51.322;9.450;2023-05-15T00:47:40;4.90;;;4.43;;
15938;SDS011;8068;51.322;9.450;2023-05-15T00:50:07;14.93;;;5.50;;
15938;SDS011;8068;51.322;9.450;2023-05-15T00:52:35;5.70;;;5.30;;
15938;SDS011;8068;51.322;9.450;2023-05-15T00:55:02;5.43;;;5.03;;
15938;SDS011;8068;51.322;9.450;2023-05-15T00:57:30;4.83;;;4.37;;
15938;SDS011;8068;51.322;9.450;2023-05-15T00:59:56;7.20;;;5.00;;
15938;SDS011;8068;51.322;9.450;2023-05-15T01:02:23;5.17;;;4.97;;
15938;SDS011;8068;51.322;9.450;2023-05-15T01:04:50;4.97;;;4.77;;
15938;SDS011;8068;51.322;9.450;2023-05-15T01:07:16;5.80;;;5.40;;
15938;SDS011;8068;51.322;9.450;2023-05-15T01:09:42;5.47;;;4.97;;
15938;SDS011;8068;51.322;9.450;2023-05-15T01:12:13;5.40;;;5.00;;
15938;SDS011;8068;51.322;9.450;2023-05-15T01:14:40;5.27;;;4.80;;
15938;SDS011;8068;51.322;9.450;2023-05-15T01:17:07;10.30;;;5.20;;
15938;SDS011;8068;51.322;9.450;2023-05-15T01:19:33;10.40;;;5.30;;
15938;SDS011;8068;51.322;9.450;2023-05-15T01:22:14;8.20;;;5.70;;
15938;SDS011;8068;51.322;9.450;2023-05-15T01:27:47;7.90;;;5.00;;
15938;SDS011;8068;51.322;9.450;2023-05-15T01:30:33;6.17;;;5.67;;
15938;SDS011;8068;51.322;9.450;2023-05-15T01:33:11;6.13;;;5.20;;
15938;SDS011;8068;51.322;9.450;2023-05-15T01:35:48;10.83;;;5.27;;
15938;SDS011;8068;51.322;9.450;2023-05-15T01:41:05;4.83;;;4.47;;
15938;SDS011;8068;51.322;9.450;2023-05-15T01:43:38;5.17;;;4.87;;
15938;SDS011;8068;51.322;9.450;2023-05-15T01:46:05;4.87;;;4.40;;
15938;SDS011;8068;51.322;9.450;2023-05-15T01:48:32;9.80;;;4.80;;
15938;SDS011;8068;51.322;9.450;2023-05-15T01:51:00;4.53;;;4.23;;
15938;SDS011;8068;51.322;9.450;2023-05-15T01:53:31;4.60;;;4.30;;
15938;SDS011;8068;51.322;9.450;2023-05-15T01:55:58;6.37;;;4.67;;
15938;SDS011;8068;51.322;9.450;2023-05-15T01:58:24;4.93;;;4.57;;
15938;SDS011;8068;51.322;9.450;2023-05-15T02:00:51;5.97;;;5.30;;
15938;SDS011;8068;51.322;9.450;2023-05-15T02:03:18;5.00;;;4.70;;
15938;SDS011;8068;51.322;9.450;2023-05-15T02:05:45;8.60;;;4.40;;
15938;SDS011;8068;51.322;9.450;2023-05-15T02:08:11;5.67;;;4.10;;
15938;SDS011;8068;51.322;9.450;2023-05-15T02:10:38;6.07;;;5.30;;
15938;SDS011;8068;51.322;9.450;2023-05-15T02:13:05;4.63;;;4.33;;
15938;SDS011;8068;51.322;9.450;2023-05-15T02:15:33;4.30;;;4.10;;
15938;SDS011;8068;51.322;9.450;2023-05-15T02:18:00;5.47;;;4.50;;
15938;SDS011;8068;51.322;9.450;2023-05-15T02:20:26;5.20;;;4.70;;
15938;SDS011;8068;51.322;9.450;2023-05-15T02:22:52;4.20;;;3.90;;
15938;SDS011;8068;51.322;9.450;2023-05-15T02:25:19;5.00;;;4.70;;
15938;SDS011;8068;51.322;9.450;2023-05-15T02:27:54;4.83;;;4.50;;
15938;SDS011;8068;51.322;9.450;2023-05-15T02:30:37;4.80;;;4.40;;
15938;SDS011;8068;51.322;9.450;2023-05-15T02:33:22;6.40;;;4.60;;
15938;SDS011;8068;51.322;9.450;2023-05-15T02:38:28;8.93;;;4.70;;
15938;SDS011;8068;51.322;9.450;2023-05-15T02:41:02;4.70;;;4.40;;
15938;SDS011;8068;51.322;9.450;2023-05-15T02:43:30;9.70;;;4.27;;
15938;SDS011;8068;51.322;9.450;2023-05-15T02:45:57;4.60;;;4.20;;
15938;SDS011;8068;51.322;9.450;2023-05-15T02:48:24;5.20;;;4.80;;
15938;SDS011;8068;51.322;9.450;2023-05-15T02:50:50;6.53;;;5.00;;
15938;SDS011;8068;51.322;9.450;2023-05-15T02:53:17;4.83;;;4.63;;
15938;SDS011;8068;51.322;9.450;2023-05-15T02:55:43;6.27;;;5.77;;
15938;SDS011;8068;51.322;9.450;2023-05-15T02:58:09;6.10;;;5.70;;
15938;SDS011;8068;51.322;9.450;2023-05-15T03:00:35;6.60;;;6.10;;
15938;SDS011;8068;51.322;9.450;2023-05-15T03:03:02;6.27;;;5.90;;
15938;SDS011;8068;51.322;9.450;2023-05-15T03:05:28;8.23;;;5.60;;
15938;SDS011;8068;51.322;9.450;2023-05-15T03:07:54;6.30;;;5.80;;
15938;SDS011;8068;51.322;9.450;2023-05-15T03:10:21;5.70;;;5.20;;
15938;SDS011;8068;51.322;9.450;2023-05-15T03:12:49;6.83;;;6.13;;
15938;SDS011;8068;51.322;9.450;2023-05-15T03:15:15;5.60;;;5.20;;
15938;SDS011;8068;51.322;9.450;2023-05-15T03:17:41;6.50;;;5.97;;
15938;SDS011;8068;51.322;9.450;2023-05-15T03:20:07;5.97;;;5.50;;
15938;SDS011;8068;51.322;9.450;2023-05-15T03:22:33;6.60;;;6.10;;
15938;SDS011;8068;51.322;9.450;2023-05-15T03:24:59;5.83;;;5.33;;
15938;SDS011;8068;51.322;9.450;2023-05-15T03:27:26;5.73;;;5.23;;
15938;SDS011;8068;51.322;9.450;2023-05-15T03:29:53;5.60;;;5.23;;
15938;SDS011;8068;51.322;9.450;2023-05-15T03:32:19;6.03;;;5.63;;
15938;SDS011;8068;51.322;9.450;2023-05-15T03:34:45;5.77;;;5.40;;
15938;SDS011;8068;51.322;9.450;2023-05-15T03:37:11;5.30;;;5.10;;
15938;SDS011;8068;51.322;9.450;2023-05-15T03:39:37;5.77;;;5.07;;
15938;SDS011;8068;51.322;9.450;2023-05-15T03:42:03;6.17;;;5.70;;
15938;SDS011;8068;51.322;9.450;2023-05-15T03:44:30;6.40;;;5.80;;
15938;SDS011;8068;51.322;9.450;2023-05-15T03:46:56;8.07;;;6.03;;
15938;SDS011;8068;51.322;9.450;2023-05-15T03:49:22;8.53;;;6.60;;
15938;SDS011;8068;51.322;9.450;2023-05-15T03:51:48;6.70;;;6.20;;
15938;SDS011;8068;51.322;9.450;2023-05-15T03:54:14;7.17;;;6.57;;
15938;SDS011;8068;51.322;9.450;2023-05-15T03:56:40;8.30;;;6.67;;
15938;SDS011;8068;51.322;9.450;2023-05-15T03:59:07;10.97;;;7.20;;
15938;SDS011;8068;51.322;9.450;2023-05-15T04:01:33;7.53;;;6.87;;
15938;SDS011;8068;51.322;9.450;2023-05-15T04:04:09;6.73;;;6.23;;
15938;SDS011;8068;51.322;9.450;2023-05-15T04:06:35;9.83;;;6.63;;
15938;SDS011;8068;51.322;9.450;2023-05-15T04:09:02;7.83;;;6.43;;
15938;SDS011;8068;51.322;9.450;2023-05-15T04:11:28;6.93;;;6.33;;
15938;SDS011;8068;51.322;9.450;2023-05-15T04:13:54;8.37;;;6.80;;
15938;SDS011;8068;51.322;9.450;2023-05-15T04:16:20;7.10;;;6.50;;
15938;SDS011;8068;51.322;9.450;2023-05-15T04:18:46;7.17;;;6.70;;
15938;SDS011;8068;51.322;9.450;2023-05-15T04:21:12;7.70;;;7.00;;
15938;SDS011;8068;51.322;9.450;2023-05-15T04:23:39;7.37;;;6.77;;
15938;SDS011;8068;51.322;9.450;2023-05-15T04:26:06;8.77;;;6.70;;
15938;SDS011;8068;51.322;9.450;2023-05-15T04:28:33;6.93;;;6.30;;
15938;SDS011;8068;51.322;9.450;2023-05-15T04:30:59;8.23;;;6.97;;
15938;SDS011;8068;51.322;9.450;2023-05-15T04:33:25;7.40;;;6.80;;
15938;SDS011;8068;51.322;9.450;2023-05-15T04:35:51;8.27;;;6.60;;
15938;SDS011;8068;51.322;9.450;2023-05-15T04:38:18;7.07;;;6.50;;
15938;SDS011;8068;51.322;9.450;2023-05-15T04:40:44;8.43;;;6.73;;
15938;SDS011;8068;51.322;9.450;2023-05-15T04:43:10;7.10;;;6.70;;
15938;SDS011;8068;51.322;9.450;2023-05-15T04:45:36;6.23;;;5.93;;
15938;SDS011;8068;51.322;9.450;2023-05-15T04:48:03;8.97;;;8.27;;
15938;SDS011;8068;51.322;9.450;2023-05-15T04:50:29;7.73;;;7.20;;
15938;SDS011;8068;51.322;9.450;2023-05-15T04:52:55;7.90;;;7.20;;
15938;SDS011;8068;51.322;9.450;2023-05-15T04:55:22;6.90;;;6.40;;
15938;SDS011;8068;51.322;9.450;2023-05-15T04:57:48;6.50;;;6.10;;
15938;SDS011;8068;51.322;9.450;2023-05-15T05:00:15;8.03;;;7.30;;
15938;SDS011;8068;51.322;9.450;2023-05-15T05:02:42;8.07;;;7.47;;
15938;SDS011;8068;51.322;9.450;2023-05-15T05:05:08;13.33;;;7.30;;
15938;SDS011;8068;51.322;9.450;2023-05-15T05:07:35;9.93;;;6.87;;
15938;SDS011;8068;51.322;9.450;2023-05-15T05:10:01;7.83;;;7.13;;
15938;SDS011;8068;51.322;9.450;2023-05-15T05:12:28;10.43;;;7.40;;
15938;SDS011;8068;51.322;9.450;2023-05-15T05:14:55;7.10;;;6.70;;
15938;SDS011;8068;51.322;9.450;2023-05-15T05:17:21;7.90;;;7.20;;
15938;SDS011;8068;51.322;9.450;2023-05-15T05:19:47;15.03;;;8.43;;
15938;SDS011;8068;51.322;9.450;2023-05-15T05:22:13;16.63;;;8.00;;
15938;SDS011;8068;51.322;9.450;2023-05-15T05:24:39;13.23;;;8.00;;
15938;SDS011;8068;51.322;9.450;2023-05-15T05:27:06;10.07;;;7.30;;
15938;SDS011;8068;51.322;9.450;2023-05-15T05:29:32;9.33;;;8.47;;
15938;SDS011;8068;51.322;9.450;2023-05-15T05:31:58;12.20;;;7.73;;
15938;SDS011;8068;51.322;9.450;2023-05-15T05:34:24;11.13;;;7.93;;
15938;SDS011;8068;51.322;9.450;2023-05-15T05:36:50;10.53;;;8.30;;
15938;SDS011;8068;51.322;9.450;2023-05-15T05:39:17;8.47;;;7.60;;
15938;SDS011;8068;51.322;9.450;2023-05-15T05:41:43;11.83;;;7.20;;
15938;SDS011;8068;51.322;9.450;2023-05-15T05:44:10;7.13;;;6.60;;
15938;SDS011;8068;51.322;9.450;2023-05-15T05:46:36;11.03;;;7.83;;
15938;SDS011;8068;51.322;9.450;2023-05-15T05:49:02;10.80;;;8.80;;
15938;SDS011;8068;51.322;9.450;2023-05-15T05:51:28;20.90;;;8.47;;
15938;SDS011;8068;51.322;9.450;2023-05-15T05:53:54;9.27;;;8.30;;
15938;SDS011;8068;51.322;9.450;2023-05-15T05:56:20;9.83;;;9.03;;
15938;SDS011;8068;51.322;9.450;2023-05-15T05:58:47;11.13;;;10.00;;
15938;SDS011;8068;51.322;9.450;2023-05-15T06:01:13;9.70;;;9.00;;
15938;SDS011;8068;51.322;9.450;2023-05-15T06:03:40;9.40;;;8.70;;
15938;SDS011;8068;51.322;9.450;2023-05-15T06:06:07;10.87;;;9.80;;
15938;SDS011;8068;51.322;9.450;2023-05-15T06:08:34;11.27;;;10.20;;
15938;SDS011;8068;51.322;9.450;2023-05-15T06:11:00;10.13;;;9.33;;
15938;SDS011;8068;51.322;9.450;2023-05-15T06:13:26;15.03;;;12.07;;
15938;SDS011;8068;51.322;9.450;2023-05-15T06:15:52;20.70;;;11.30;;
15938;SDS011;8068;51.322;9.450;2023-05-15T06:18:18;12.70;;;11.60;;
15938;SDS011;8068;51.322;9.450;2023-05-15T06:20:44;11.87;;;10.77;;
15938;SDS011;8068;51.322;9.450;2023-05-15T06:23:11;11.40;;;10.40;;
15938;SDS011;8068;51.322;9.450;2023-05-15T06:25:37;14.20;;;12.33;;
15938;SDS011;8068;51.322;9.450;2023-05-15T06:28:04;12.33;;;11.23;;
15938;SDS011;8068;51.322;9.450;2023-05-15T06:30:30;15.17;;;11.43;;
15938;SDS011;8068;51.322;9.450;2023-05-15T06:32:56;13.50;;;12.10;;
15938;SDS011;8068;51.322;9.450;2023-05-15T06:35:22;12.00;;;11.00;;
15938;SDS011;8068;51.322;9.450;2023-05-15T06:37:51;13.33;;;12.03;;
15938;SDS011;8068;51.322;9.450;2023-05-15T06:40:18;11.90;;;10.90;;
15938;SDS011;8068;51.322;9.450;2023-05-15T06:42:45;12.23;;;11.07;;
15938;SDS011;8068;51.322;9.450;2023-05-15T06:45:11;12.43;;;11.23;;
15938;SDS011;8068;51.322;9.450;2023-05-15T06:47:37;15.90;;;12.33;;
15938;SDS011;8068;51.322;9.450;2023-05-15T06:50:04;16.50;;;11.17;;
15938;SDS011;8068;51.322;9.450;2023-05-15T06:52:31;11.97;;;10.97;;
15938;SDS011;8068;51.322;9.450;2023-05-15T06:54:57;13.70;;;12.60;;
15938;SDS011;8068;51.322;9.450;2023-05-15T06:57:23;11.47;;;10.67;;
15938;SDS011;8068;51.322;9.450;2023-05-15T06:59:51;11.97;;;10.97;;
15938;SDS011;8068;51.322;9.450;2023-05-15T07:02:17;12.23;;;11.07;;
15938;SDS011;8068;51.322;9.450;2023-05-15T07:04:43;12.63;;;11.47;;
15938;SDS011;8068;51.322;9.450;2023-05-15T07:07:09;13.27;;;11.93;;
15938;SDS011;8068;51.322;9.450;2023-05-15T07:09:35;12.07;;;10.87;;
15938;SDS011;8068;51.322;9.450;2023-05-15T07:12:02;17.00;;;10.47;;
15938;SDS011;8068;51.322;9.450;2023-05-15T07:14:28;11.40;;;10.40;;
15938;SDS011;8068;51.322;9.450;2023-05-15T07:16:55;12.93;;;11.83;;
15938;SDS011;8068;51.322;9.450;2023-05-15T07:19:21;13.30;;;11.80;;
15938;SDS011;8068;51.322;9.450;2023-05-15T07:21:47;15.17;;;11.73;;
15938;SDS011;8068;51.322;9.450;2023-05-15T07:24:13;12.67;;;11.33;;
15938;SDS011;8068;51.322;9.450;2023-05-15T07:26:39;12.53;;;11.40;;
15938;SDS011;8068;51.322;9.450;2023-05-15T07:29:23;12.30;;;11.20;;
15938;SDS011;8068;51.322;9.450;2023-05-15T07:31:49;12.00;;;11.03;;
15938;SDS011;8068;51.322;9.450;2023-05-15T07:34:15;15.97;;;10.70;;
15938;SDS011;8068;51.322;9.450;2023-05-15T07:36:41;11.67;;;10.70;;
15938;SDS011;8068;51.322;9.450;2023-05-15T07:39:07;11.87;;;10.60;;
15938;SDS011;8068;51.322;9.450;2023-05-15T07:41:33;12.80;;;11.70;;
15938;SDS011;8068;51.322;9.450;2023-05-15T07:43:59;11.50;;;10.57;;
15938;SDS011;8068;51.322;9.450;2023-05-15T07:46:26;11.97;;;10.97;;
15938;SDS011;8068;51.322;9.450;2023-05-15T07:48:52;11.53;;;10.37;;
15938;SDS011;8068;51.322;9.450;2023-05-15T07:51:18;11.03;;;10.23;;
15938;SDS011;8068;51.322;9.450;2023-05-15T07:53:44;12.63;;;11.43;;
15938;SDS011;8068;51.322;9.450;2023-05-15T07:56:10;11.93;;;10.80;;
15938;SDS011;8068;51.322;9.450;2023-05-15T07:58:37;12.53;;;11.30;;
15938;SDS011;8068;51.322;9.450;2023-05-15T08:01:03;12.07;;;10.87;;
15938;SDS011;8068;51.322;9.450;2023-05-15T08:03:29;13.50;;;11.60;;
15938;SDS011;8068;51.322;9.450;2023-05-15T08:05:56;11.47;;;10.30;;
15938;SDS011;8068;51.322;9.450;2023-05-15T08:08:22;11.40;;;10.30;;
15938;SDS011;8068;51.322;9.450;2023-05-15T08:10:48;11.83;;;10.50;;
15938;SDS011;8068;51.322;9.450;2023-05-15T08:13:14;11.73;;;10.10;;
15938;SDS011;8068;51.322;9.450;2023-05-15T08:15:40;9.63;;;8.40;;
15938;SDS011;8068;51.322;9.450;2023-05-15T08:18:06;10.70;;;9.70;;
15938;SDS011;8068;51.322;9.450;2023-05-15T08:20:34;9.60;;;8.70;;
15938;SDS011;8068;51.322;9.450;2023-05-15T08:23:01;10.00;;;9.27;;
15938;SDS011;8068;51.322;9.450;2023-05-15T08:25:27;11.00;;;9.77;;
15938;SDS011;8068;51.322;9.450;2023-05-15T08:27:53;9.93;;;8.93;;
15938;SDS011;8068;51.322;9.450;2023-05-15T08:30:19;9.27;;;8.50;;
15938;SDS011;8068;51.322;9.450;2023-05-15T08:32:45;12.43;;;7.50;;
15938;SDS011;8068;51.322;9.450;2023-05-15T08:35:12;7.13;;;6.63;;
15938;SDS011;8068;51.322;9.450;2023-05-15T08:37:38;6.23;;;5.93;;
15938;SDS011;8068;51.322;9.450;2023-05-15T08:40:04;9.63;;;5.60;;
15938;SDS011;8068;51.322;9.450;2023-05-15T08:42:49;6.40;;;5.90;;
15938;SDS011;8068;51.322;9.450;2023-05-15T08:45:18;6.57;;;5.97;;
15938;SDS011;8068;51.322;9.450;2023-05-15T08:47:45;6.30;;;5.87;;
15938;SDS011;8068;51.322;9.450;2023-05-15T08:50:12;6.63;;;6.23;;
15938;SDS011;8068;51.322;9.450;2023-05-15T08:52:40;6.43;;;6.10;;
15938;SDS011;8068;51.322;9.450;2023-05-15T08:55:08;6.50;;;6.00;;
15938;SDS011;8068;51.322;9.450;2023-05-15T08:57:35;5.63;;;5.30;;
15938;SDS011;8068;51.322;9.450;2023-05-15T09:00:02;6.93;;;6.43;;
15938;SDS011;8068;51.322;9.450;2023-05-15T09:02:35;7.33;;;6.63;;
15938;SDS011;8068;51.322;9.450;2023-05-15T09:05:02;5.97;;;5.57;;
15938;SDS011;8068;51.322;9.450;2023-05-15T09:07:31;10.40;;;5.57;;
15938;SDS011;8068;51.322;9.450;2023-05-15T09:09:58;6.13;;;5.77;;
15938;SDS011;8068;51.322;9.450;2023-05-15T09:12:26;6.60;;;5.50;;
15938;SDS011;8068;51.322;9.450;2023-05-15T09:15:06;6.30;;;5.87;;
15938;SDS011;8068;51.322;9.450;2023-05-15T09:17:43;7.57;;;5.70;;
15938;SDS011;8068;51.322;9.450;2023-05-15T09:20:26;5.50;;;5.20;;
15938;SDS011;8068;51.322;9.450;2023-05-15T09:22:56;5.73;;;5.23;;
15938;SDS011;8068;51.322;9.450;2023-05-15T09:25:36;6.73;;;5.27;;
15938;SDS011;8068;51.322;9.450;2023-05-15T09:28:08;5.83;;;5.50;;
15938;SDS011;8068;51.322;9.450;2023-05-15T09:30:39;8.70;;;6.03;;
15938;SDS011;8068;51.322;9.450;2023-05-15T09:33:07;5.73;;;4.90;;
15938;SDS011;8068;51.322;9.450;2023-05-15T09:35:34;5.70;;;5.20;;
15938;SDS011;8068;51.322;9.450;2023-05-15T09:38:03;8.97;;;5.60;;
15938;SDS011;8068;51.322;9.450;2023-05-15T09:40:32;5.97;;;5.57;;
15938;SDS011;8068;51.322;9.450;2023-05-15T09:42:58;6.17;;;5.73;;
15938;SDS011;8068;51.322;9.450;2023-05-15T09:45:25;6.37;;;5.77;;
15938;SDS011;8068;51.322;9.450;2023-05-15T09:47:54;6.40;;;5.80;;
15938;SDS011;8068;51.322;9.450;2023-05-15T09:50:22;5.90;;;5.30;;
15938;SDS011;8068;51.322;9.450;2023-05-15T09:52:50;7.00;;;6.40;;
15938;SDS011;8068;51.322;9.450;2023-05-15T09:55:18;6.40;;;6.00;;
15938;SDS011;8068;51.322;9.450;2023-05-15T09:58:02;7.07;;;6.37;;
15938;SDS011;8068;51.322;9.450;2023-05-15T10:00:30;12.60;;;5.70;;
15938;SDS011;8068;51.322;9.450;2023-05-15T10:02:59;6.07;;;5.70;;
15938;SDS011;8068;51.322;9.450;2023-05-15T10:05:26;13.43;;;5.70;;
15938;SDS011;8068;51.322;9.450;2023-05-15T10:08:08;7.20;;;5.50;;
15938;SDS011;8068;51.322;9.450;2023-05-15T10:10:34;5.50;;;5.17;;
15938;SDS011;8068;51.322;9.450;2023-05-15T10:13:00;5.63;;;5.17;;
15938;SDS011;8068;51.322;9.450;2023-05-15T10:15:30;5.60;;;5.10;;
15938;SDS011;8068;51.322;9.450;2023-05-15T10:17:56;6.00;;;5.47;;
15938;SDS011;8068;51.322;9.450;2023-05-15T10:20:24;9.80;;;5.63;;
15938;SDS011;8068;51.322;9.450;2023-05-15T10:22:52;6.47;;;5.77;;
15938;SDS011;8068;51.322;9.450;2023-05-15T10:27:52;6.00;;;5.50;;
15938;SDS011;8068;51.322;9.450;2023-05-15T10:30:19;6.60;;;5.43;;
15938;SDS011;8068;51.322;9.450;2023-05-15T10:32:47;5.27;;;4.97;;
15938;SDS011;8068;51.322;9.450;2023-05-15T10:35:14;5.93;;;5.43;;
15938;SDS011;8068;51.322;9.450;2023-05-15T10:37:41;7.77;;;5.80;;
15938;SDS011;8068;51.322;9.450;2023-05-15T10:40:08;6.57;;;5.80;;
15938;SDS011;8068;51.322;9.450;2023-05-15T10:42:35;6.07;;;5.33;;
15938;SDS011;8068;51.322;9.450;2023-05-15T10:45:03;11.50;;;5.30;;
15938;SDS011;8068;51.322;9.450;2023-05-15T10:47:30;5.23;;;4.83;;
15938;SDS011;8068;51.322;9.450;2023-05-15T10:49:57;5.70;;;4.87;;
15938;SDS011;8068;51.322;9.450;2023-05-15T10:52:23;5.73;;;5.00;;
15938;SDS011;8068;51.322;9.450;2023-05-15T10:54:51;6.53;;;5.10;;
15938;SDS011;8068;51.322;9.450;2023-05-15T10:57:21;5.57;;;4.47;;
15938;SDS011;8068;51.322;9.450;2023-05-15T10:59:47;7.60;;;5.23;;
15938;SDS011;8068;51.322;9.450;2023-05-15T11:04:54;5.00;;;4.60;;
15938;SDS011;8068;51.322;9.450;2023-05-15T11:07:25;5.77;;;5.30;;
15938;SDS011;8068;51.322;9.450;2023-05-15T11:09:52;7.30;;;6.50;;
15938;SDS011;8068;51.322;9.450;2023-05-15T11:12:18;8.03;;;7.00;;
15938;SDS011;8068;51.322;9.450;2023-05-15T11:17:17;7.10;;;6.40;;
15938;SDS011;8068;51.322;9.450;2023-05-15T11:27:29;5.20;;;4.70;;
15938;SDS011;8068;51.322;9.450;2023-05-15T11:30:15;4.97;;;4.67;;
15938;SDS011;8068;51.322;9.450;2023-05-15T11:37:57;6.20;;;5.80;;
15938;SDS011;8068;51.322;9.450;2023-05-15T11:45:30;8.00;;;7.30;;
15938;SDS011;8068;51.322;9.450;2023-05-15T11:48:00;7.70;;;6.93;;
15938;SDS011;8068;51.322;9.450;2023-05-15T11:50:29;8.13;;;7.40;;
15938;SDS011;8068;51.322;9.450;2023-05-15T11:52:55;12.03;;;6.57;;
15938;SDS011;8068;51.322;9.450;2023-05-15T11:55:21;7.30;;;6.77;;
15938;SDS011;8068;51.322;9.450;2023-05-15T11:57:48;8.17;;;7.47;;
15938;SDS011;8068;51.322;9.450;2023-05-15T12:00:14;7.80;;;7.07;;
15938;SDS011;8068;51.322;9.450;2023-05-15T12:02:41;8.33;;;7.47;;
15938;SDS011;8068;51.322;9.450;2023-05-15T12:05:07;7.50;;;6.57;;
15938;SDS011;8068;51.322;9.450;2023-05-15T12:07:38;8.67;;;7.20;;
15938;SDS011;8068;51.322;9.450;2023-05-15T12:10:21;7.87;;;7.23;;
15938;SDS011;8068;51.322;9.450;2023-05-15T12:12:47;7.73;;;7.10;;
15938;SDS011;8068;51.322;9.450;2023-05-15T12:15:14;8.73;;;8.03;;
15938;SDS011;8068;51.322;9.450;2023-05-15T12:17:44;8.43;;;7.83;;
15938;SDS011;8068;51.322;9.450;2023-05-15T12:20:14;8.43;;;7.83;;
15938;SDS011;8068;51.322;9.450;2023-05-15T12:22:41;9.37;;;7.80;;
15938;SDS011;8068;51.322;9.450;2023-05-15T12:25:08;9.20;;;8.40;;
15938;SDS011;8068;51.322;9.450;2023-05-15T12:27:36;11.37;;;7.23;;
15938;SDS011;8068;51.322;9.450;2023-05-15T12:30:03;7.70;;;7.00;;
15938;SDS011;8068;51.322;9.450;2023-05-15T12:32:31;11.33;;;9.30;;
15938;SDS011;8068;51.322;9.450;2023-05-15T12:34:59;14.20;;;11.30;;
15938;SDS011;8068;51.322;9.450;2023-05-15T12:37:25;11.23;;;10.20;;
15938;SDS011;8068;51.322;9.450;2023-05-15T12:39:52;11.47;;;8.97;;
15938;SDS011;8068;51.322;9.450;2023-05-15T12:42:19;11.13;;;9.50;;
15938;SDS011;8068;51.322;9.450;2023-05-15T12:44:48;11.47;;;8.77;;
15938;SDS011;8068;51.322;9.450;2023-05-15T12:47:19;10.20;;;8.60;;
15938;SDS011;8068;51.322;9.450;2023-05-15T12:49:47;9.33;;;8.40;;
15938;SDS011;8068;51.322;9.450;2023-05-15T12:52:13;9.03;;;7.30;;
15938;SDS011;8068;51.322;9.450;2023-05-15T12:54:39;4.90;;;4.60;;
15938;SDS011;8068;51.322;9.450;2023-05-15T12:57:07;8.97;;;5.40;;
15938;SDS011;8068;51.322;9.450;2023-05-15T12:59:33;9.47;;;6.10;;
15938;SDS011;8068;51.322;9.450;2023-05-15T13:02:00;6.23;;;5.80;;
15938;SDS011;8068;51.322;9.450;2023-05-15T13:04:26;6.27;;;5.83;;
15938;SDS011;8068;51.322;9.450;2023-05-15T13:06:52;7.20;;;6.60;;
15938;SDS011;8068;51.322;9.450;2023-05-15T13:09:22;7.50;;;7.00;;
15938;SDS011;8068;51.322;9.450;2023-05-15T13:11:48;6.67;;;6.23;;
15938;SDS011;8068;51.322;9.450;2023-05-15T13:14:17;8.03;;;7.00;;
15938;SDS011;8068;51.322;9.450;2023-05-15T13:16:44;7.50;;;7.00;;
15938;SDS011;8068;51.322;9.450;2023-05-15T13:19:11;8.43;;;7.90;;
15938;SDS011;8068;51.322;9.450;2023-05-15T13:21:37;12.87;;;11.67;;
15938;SDS011;8068;51.322;9.450;2023-05-15T13:24:04;13.77;;;12.47;;
15938;SDS011;8068;51.322;9.450;2023-05-15T13:26:31;14.67;;;13.17;;
15938;SDS011;8068;51.322;9.450;2023-05-15T13:28:57;18.37;;;16.37;;
15938;SDS011;8068;51.322;9.450;2023-05-15T13:31:23;28.43;;;13.87;;
15938;SDS011;8068;51.322;9.450;2023-05-15T13:33:50;15.77;;;14.20;;
15938;SDS011;8068;51.322;9.450;2023-05-15T13:36:16;17.37;;;13.03;;
15938;SDS011;8068;51.322;9.450;2023-05-15T13:38:42;7.80;;;7.10;;
15938;SDS011;8068;51.322;9.450;2023-05-15T13:41:08;6.00;;;5.03;;
15938;SDS011;8068;51.322;9.450;2023-05-15T13:43:34;9.63;;;5.03;;
15938;SDS011;8068;51.322;9.450;2023-05-15T13:46:00;5.00;;;4.60;;
15938;SDS011;8068;51.322;9.450;2023-05-15T13:48:26;6.20;;;5.70;;
15938;SDS011;8068;51.322;9.450;2023-05-15T13:50:52;9.37;;;5.30;;
15938;SDS011;8068;51.322;9.450;2023-05-15T13:53:18;7.53;;;5.97;;
15938;SDS011;8068;51.322;9.450;2023-05-15T13:55:45;6.37;;;5.50;;
15938;SDS011;8068;51.322;9.450;2023-05-15T13:58:12;5.40;;;4.30;;
15938;SDS011;8068;51.322;9.450;2023-05-15T14:00:38;7.80;;;3.00;;
15938;SDS011;8068;51.322;9.450;2023-05-15T14:03:07;7.77;;;3.10;;
15938;SDS011;8068;51.322;9.450;2023-05-15T14:05:33;3.63;;;3.33;;
15938;SDS011;8068;51.322;9.450;2023-05-15T14:07:59;4.20;;;3.53;;
15938;SDS011;8068;51.322;9.450;2023-05-15T14:10:25;3.97;;;3.63;;
15938;SDS011;8068;51.322;9.450;2023-05-15T14:12:52;4.33;;;3.83;;
15938;SDS011;8068;51.322;9.450;2023-05-15T14:15:18;6.63;;;4.60;;
15938;SDS011;8068;51.322;9.450;2023-05-15T14:17:44;4.33;;;4.10;;
15938;SDS011;8068;51.322;9.450;2023-05-15T14:20:13;4.10;;;3.90;;
15938;SDS011;8068;51.322;9.450;2023-05-15T14:22:39;7.57;;;6.97;;
15938;SDS011;8068;51.322;9.450;2023-05-15T14:25:05;8.30;;;7.70;;
15938;SDS011;8068;51.322;9.450;2023-05-15T14:27:33;9.60;;;9.00;;
15938;SDS011;8068;51.322;9.450;2023-05-15T14:29:59;10.60;;;7.90;;
15938;SDS011;8068;51.322;9.450;2023-05-15T14:32:26;6.90;;;6.50;;
15938;SDS011;8068;51.322;9.450;2023-05-15T14:34:52;5.67;;;5.27;;
15938;SDS011;8068;51.322;9.450;2023-05-15T14:37:18;7.20;;;5.47;;
15938;SDS011;8068;51.322;9.450;2023-05-15T14:39:44;4.30;;;4.00;;
15938;SDS011;8068;51.322;9.450;2023-05-15T14:42:10;11.53;;;3.60;;
15938;SDS011;8068;51.322;9.450;2023-05-15T14:44:36;3.47;;;3.27;;
15938;SDS011;8068;51.322;9.450;2023-05-15T14:47:07;3.57;;;3.23;;
15938;SDS011;8068;51.322;9.450;2023-05-15T14:49:34;3.63;;;3.33;;
15938;SDS011;8068;51.322;9.450;2023-05-15T14:52:02;10.83;;;4.00;;
15938;SDS011;8068;51.322;9.450;2023-05-15T14:54:28;4.03;;;3.10;;
15938;SDS011;8068;51.322;9.450;2023-05-15T14:56:55;3.77;;;3.57;;
15938;SDS011;8068;51.322;9.450;2023-05-15T14:59:26;3.33;;;3.13;;
15938;SDS011;8068;51.322;9.450;2023-05-15T15:01:52;3.40;;;3.20;;
15938;SDS011;8068;51.322;9.450;2023-05-15T15:04:18;3.10;;;2.90;;
15938;SDS011;8068;51.322;9.450;2023-05-15T15:06:47;4.60;;;3.90;;
15938;SDS011;8068;51.322;9.450;2023-05-15T15:09:14;2.97;;;2.87;;
15938;SDS011;8068;51.322;9.450;2023-05-15T15:11:40;3.63;;;3.30;;
15938;SDS011;8068;51.322;9.450;2023-05-15T15:14:06;3.57;;;3.23;;
15938;SDS011;8068;51.322;9.450;2023-05-15T15:16:32;3.30;;;3.10;;
15938;SDS011;8068;51.322;9.450;2023-05-15T15:18:58;4.20;;;3.80;;
15938;SDS011;8068;51.322;9.450;2023-05-15T15:21:25;4.60;;;4.20;;
15938;SDS011;8068;51.322;9.450;2023-05-15T15:23:51;3.90;;;3.60;;
15938;SDS011;8068;51.322;9.450;2023-05-15T15:26:17;7.33;;;3.17;;
15938;SDS011;8068;51.322;9.450;2023-05-15T15:28:43;2.83;;;2.73;;
15938;SDS011;8068;51.322;9.450;2023-05-15T15:31:09;3.13;;;3.03;;